Time;durP1;ratioP1;P1;durP2;ratioP2;P2;SDS_P1;SDS_P2;PMS_P1;PMS_P2;Temp;Humidity;BMP_temperature;BMP_pressure;BME280_temperature;BME280_humidity;BME280_pressure;Samples;Min_cycle;Max_cycle;Signal;HPM_P1;HPM_P2
2021/01/28 00:01:04;;;;;;;;;;;1.80;99.90;;;;;;5117903;27;19976;-71
2021/01/28 00:03:30;;;;;;;;;;;1.80;99.90;;;;;;5135756;27;19993;-71
2021/01/28 00:05:56;;;;;;;;;;;1.80;99.90;;;;;;5133444;27;20393;-70
2021/01/28 00:08:21;;;;;;;;;;;1.70;99.90;;;;;;5115037;28;20040;-71
2021/01/28 00:10:47;;;;;;;;;;;1.70;99.90;;;;;;5115207;28;19972;-71
2021/01/28 00:13:13;;;;;;;;;;;1.80;99.90;;;;;;5115312;28;19924;-71
2021/01/28 00:15:40;;;;;;;;;;;1.80;99.90;;;;;;5114749;28;20381;-70
2021/01/28 00:18:07;;;;;;;;;;;1.80;99.90;;;;;;5114976;28;20369;-71
2021/01/28 00:20:35;;;;;;;;;;;1.80;99.90;;;;;;5114279;28;19969;-72
2021/01/28 00:23:01;;;;;;;;;;;1.80;99.90;;;;;;5114425;28;19979;-71
2021/01/28 00:25:27;;;;;;;;;;;1.80;99.90;;;;;;5114822;28;19932;-71
2021/01/28 00:27:54;;;;;;;;;;;1.80;99.90;;;;;;5114763;28;20382;-71
2021/01/28 00:30:22;;;;;;;;;;;1.90;99.90;;;;;;5114825;28;19924;-72
2021/01/28 00:32:48;;;;;;;;;;;1.90;99.90;;;;;;5114873;28;19935;-71
2021/01/28 00:35:16;;;;;;;;;;;1.80;99.90;;;;;;5117117;27;19924;-71
2021/01/28 00:37:42;;;;;;;;;;;1.80;99.90;;;;;;5134794;27;19923;-71
2021/01/28 00:40:08;;;;;;;;;;;1.80;99.90;;;;;;5135285;27;19927;-71
2021/01/28 00:42:34;;;;;;;;;;;1.80;99.90;;;;;;5135198;27;19924;-71
2021/01/28 00:45:00;;;;;;;;;;;1.80;99.90;;;;;;5134855;27;19924;-71
2021/01/28 00:47:28;;;;;;;;;;;1.80;99.90;;;;;;5134641;27;19923;-71
2021/01/28 00:49:53;;;;;;;;;;;1.80;99.90;;;;;;5134871;27;20481;-71
2021/01/28 00:52:20;;;;;;;;;;;1.80;99.90;;;;;;5120576;27;19927;-71
2021/01/28 00:54:46;;;;;;;;;;;1.70;99.90;;;;;;5114062;28;20427;-71
2021/01/28 00:57:12;;;;;;;;;;;1.70;99.90;;;;;;5114200;27;19923;-71
2021/01/28 00:59:38;;;;;;;;;;;1.70;99.90;;;;;;5114268;28;19927;-71
2021/01/28 01:02:04;;;;;;;;;;;1.70;99.90;;;;;;5114182;28;19924;-71
2021/01/28 01:04:30;;;;;;;;;;;1.70;99.90;;;;;;5126825;27;20282;-71
2021/01/28 01:06:57;;;;;;;;;;;1.70;99.90;;;;;;5134423;27;19923;-71
2021/01/28 01:09:24;;;;;;;;;;;1.70;99.90;;;;;;5134749;27;19924;-71
2021/01/28 01:11:51;;;;;;;;;;;1.70;99.90;;;;;;5134739;27;19931;-71
2021/01/28 01:14:17;;;;;;;;;;;1.70;99.90;;;;;;5134589;27;19923;-71
2021/01/28 01:16:43;;;;;;;;;;;1.70;99.90;;;;;;5133967;27;19924;-71
2021/01/28 01:19:09;;;;;;;;;;;1.70;99.90;;;;;;5121679;27;19923;-71
2021/01/28 01:21:35;;;;;;;;;;;1.70;99.90;;;;;;5113966;28;19924;-71
2021/01/28 01:24:01;;;;;;;;;;;1.70;99.90;;;;;;5113812;28;19931;-70
2021/01/28 01:26:28;;;;;;;;;;;1.70;99.90;;;;;;5113374;28;19976;-71
2021/01/28 01:28:54;;;;;;;;;;;1.70;99.90;;;;;;5113682;28;19992;-71
2021/01/28 01:31:20;;;;;;;;;;;1.70;99.90;;;;;;5115981;27;21402;-71
2021/01/28 01:33:46;;;;;;;;;;;1.70;99.90;;;;;;5133716;27;19931;-71
2021/01/28 01:36:12;;;;;;;;;;;1.70;99.90;;;;;;5133856;27;19924;-71
2021/01/28 01:38:38;;;;;;;;;;;1.70;99.90;;;;;;5134069;27;20408;-71
2021/01/28 01:41:04;;;;;;;;;;;1.80;99.90;;;;;;5129804;27;19924;-71
2021/01/28 01:43:31;;;;;;;;;;;1.70;99.90;;;;;;5113359;28;20382;-71
2021/01/28 01:45:59;;;;;;;;;;;1.70;99.90;;;;;;5113423;27;19923;-70
2021/01/28 01:48:27;;;;;;;;;;;1.80;99.90;;;;;;5113233;28;19923;-71
2021/01/28 01:50:57;;;;;;;;;;;1.70;99.90;;;;;;5113428;28;19924;-71
2021/01/28 01:53:26;;;;;;;;;;;1.70;99.90;;;;;;5113398;28;19932;-71
2021/01/28 01:55:55;;;;;;;;;;;1.70;99.90;;;;;;5112756;28;19923;-71
2021/01/28 01:58:26;;;;;;;;;;;1.70;99.90;;;;;;5113178;28;19969;-70
2021/01/28 02:00:53;;;;;;;;;;;1.70;99.90;;;;;;5127781;27;19984;-71
2021/01/28 02:03:19;;;;;;;;;;;1.70;99.90;;;;;;5133792;27;19923;-71
2021/01/28 02:05:48;;;;;;;;;;;1.70;99.90;;;;;;5133072;27;20381;-71
2021/01/28 02:08:14;;;;;;;;;;;1.80;99.90;;;;;;5133621;27;19924;-72
2021/01/28 02:10:41;;;;;;;;;;;1.70;99.90;;;;;;5133653;27;20010;-72
2021/01/28 02:13:07;;;;;;;;;;;1.80;99.90;;;;;;5133596;27;19959;-71
2021/01/28 02:15:33;;;;;;;;;;;1.80;99.90;;;;;;5132391;27;19923;-72
2021/01/28 02:18:00;;;;;;;;;;;1.80;99.90;;;;;;5133634;27;19958;-71
2021/01/28 02:20:36;;;;;;;;;;;1.80;99.90;;;;;;5133594;27;19928;-71
2021/01/28 02:23:04;;;;;;;;;;;1.80;99.90;;;;;;5133362;27;19927;-71
2021/01/28 02:25:32;;;;;;;;;;;1.90;99.90;;;;;;5133182;27;19931;-71
2021/01/28 02:28:00;;;;;;;;;;;1.80;99.90;;;;;;5125972;27;19924;-71
2021/01/28 02:30:27;;;;;;;;;;;1.80;99.90;;;;;;5112947;28;19931;-71
2021/01/28 02:32:53;;;;;;;;;;;1.90;99.90;;;;;;5112550;28;19924;-72
2021/01/28 02:35:20;;;;;;;;;;;1.90;99.90;;;;;;5128403;28;19923;-71
2021/01/28 02:37:46;;;;;;;;;;;1.90;99.90;;;;;;5132504;28;19924;-73
2021/01/28 02:40:13;;;;;;;;;;;1.90;99.90;;;;;;5133392;28;20346;-71
2021/01/28 02:42:40;;;;;;;;;;;1.90;99.90;;;;;;5113978;28;19946;-71
2021/01/28 02:45:07;;;;;;;;;;;1.90;99.90;;;;;;5114845;28;19984;-71
2021/01/28 02:47:33;;;;;;;;;;;1.90;99.90;;;;;;5116817;28;20305;-71
2021/01/28 02:49:59;;;;;;;;;;;1.90;99.90;;;;;;5116784;28;19924;-71
2021/01/28 02:52:25;;;;;;;;;;;2.00;99.90;;;;;;5116934;27;19977;-71
2021/01/28 02:54:52;;;;;;;;;;;2.00;99.90;;;;;;5117412;27;19927;-71
2021/01/28 02:57:18;;;;;;;;;;;2.00;99.90;;;;;;5116417;28;19930;-71
2021/01/28 02:59:48;;;;;;;;;;;2.00;99.90;;;;;;5116711;28;19923;-71
2021/01/28 03:02:15;;;;;;;;;;;2.10;99.90;;;;;;5116621;28;19923;-71
2021/01/28 03:04:41;;;;;;;;;;;2.10;99.90;;;;;;5116772;28;19930;-71
2021/01/28 03:07:08;;;;;;;;;;;2.10;99.90;;;;;;5116055;28;19928;-71
2021/01/28 03:09:35;;;;;;;;;;;2.10;99.90;;;;;;5116554;28;19946;-71
2021/01/28 03:12:01;;;;;;;;;;;2.10;99.90;;;;;;5116273;28;19924;-71
2021/01/28 03:14:27;;;;;;;;;;;2.10;99.90;;;;;;5116332;28;19928;-71
2021/01/28 03:16:54;;;;;;;;;;;2.20;99.90;;;;;;5115835;28;20481;-71
2021/01/28 03:19:21;;;;;;;;;;;2.20;99.90;;;;;;5115812;28;19924;-71
2021/01/28 03:21:47;;;;;;;;;;;2.20;99.90;;;;;;5116252;28;19949;-71
2021/01/28 03:24:14;;;;;;;;;;;2.20;99.90;;;;;;5116091;28;19977;-71
2021/01/28 03:26:40;;;;;;;;;;;2.30;99.90;;;;;;5115711;28;19930;-71
2021/01/28 03:29:07;;;;;;;;;;;2.30;99.90;;;;;;5116071;28;19930;-71
2021/01/28 03:31:34;;;;;;;;;;;2.30;99.90;;;;;;5115951;28;19931;-70
2021/01/28 03:34:00;;;;;;;;;;;2.30;99.90;;;;;;5115828;28;20394;-72
2021/01/28 03:36:27;;;;;;;;;;;2.30;99.90;;;;;;5115511;28;19923;-72
2021/01/28 03:38:53;;;;;;;;;;;2.30;99.90;;;;;;5115640;28;19923;-70
2021/01/28 03:41:19;;;;;;;;;;;2.40;99.90;;;;;;5115930;28;19923;-70
2021/01/28 03:43:45;;;;;;;;;;;2.40;99.90;;;;;;5115642;28;20382;-72
2021/01/28 03:46:11;;;;;;;;;;;2.40;99.90;;;;;;5115227;28;19924;-71
2021/01/28 03:48:38;;;;;;;;;;;2.40;99.90;;;;;;5115454;28;20301;-71
2021/01/28 03:51:05;;;;;;;;;;;2.40;99.90;;;;;;5115609;28;19924;-72
2021/01/28 03:53:31;;;;;;;;;;;2.40;99.90;;;;;;5115677;28;19924;-71
2021/01/28 03:55:57;;;;;;;;;;;2.40;99.90;;;;;;5114842;28;19928;-72
2021/01/28 03:58:23;;;;;;;;;;;2.50;99.90;;;;;;5115384;28;19992;-72
2021/01/28 04:00:49;;;;;;;;;;;2.40;99.90;;;;;;5115498;28;20347;-71
2021/01/28 04:03:15;;;;;;;;;;;2.50;99.90;;;;;;5115327;28;19931;-71
2021/01/28 04:05:41;;;;;;;;;;;2.50;99.90;;;;;;5115096;28;19931;-72
2021/01/28 04:08:08;;;;;;;;;;;2.50;99.90;;;;;;5115249;28;19928;-71
2021/01/28 04:10:36;;;;;;;;;;;2.50;99.90;;;;;;5115099;28;19930;-71
2021/01/28 04:13:02;;;;;;;;;;;2.50;99.90;;;;;;5115137;28;20354;-71
2021/01/28 04:15:28;;;;;;;;;;;2.50;99.90;;;;;;5114498;28;19924;-71
2021/01/28 04:17:54;;;;;;;;;;;2.50;99.90;;;;;;5114903;28;20404;-71
2021/01/28 04:20:23;;;;;;;;;;;2.50;99.90;;;;;;5114880;28;19924;-72
2021/01/28 04:22:49;;;;;;;;;;;2.50;99.90;;;;;;5115077;28;19931;-71
2021/01/28 04:25:16;;;;;;;;;;;2.50;99.90;;;;;;5115003;28;19924;-71
2021/01/28 04:27:43;;;;;;;;;;;2.50;99.90;;;;;;5114599;28;19924;-71
2021/01/28 04:30:10;;;;;;;;;;;2.50;99.90;;;;;;5114707;28;20401;-72
2021/01/28 04:32:36;;;;;;;;;;;2.60;99.90;;;;;;5114971;28;20293;-71
2021/01/28 04:35:03;;;;;;;;;;;2.60;99.90;;;;;;5114549;28;19934;-71
2021/01/28 04:37:29;;;;;;;;;;;2.60;99.90;;;;;;5114453;28;19923;-71
2021/01/28 04:39:55;;;;;;;;;;;2.60;99.90;;;;;;5114619;28;19930;-71
2021/01/28 04:42:24;;;;;;;;;;;2.60;99.90;;;;;;5114610;28;19923;-71
2021/01/28 04:44:50;;;;;;;;;;;2.70;99.90;;;;;;5114409;28;19924;-71
2021/01/28 04:47:18;;;;;;;;;;;2.70;99.90;;;;;;5114192;28;19928;-71
2021/01/28 04:49:52;;;;;;;;;;;2.70;99.90;;;;;;5114167;28;20385;-71
2021/01/28 04:52:18;;;;;;;;;;;2.70;99.90;;;;;;5114490;28;19928;-71
2021/01/28 04:54:45;;;;;;;;;;;2.70;99.90;;;;;;5114064;28;19928;-71
2021/01/28 04:57:12;;;;;;;;;;;2.70;99.90;;;;;;5113836;28;19931;-72
2021/01/28 04:59:42;;;;;;;;;;;2.70;99.90;;;;;;5114435;28;19953;-72
2021/01/28 05:02:13;;;;;;;;;;;2.80;99.90;;;;;;5114266;28;19923;-72
2021/01/28 05:04:40;;;;;;;;;;;2.80;99.90;;;;;;5114064;28;19969;-72
2021/01/28 05:07:08;;;;;;;;;;;2.70;99.90;;;;;;5112928;28;20043;-72
2021/01/28 05:09:34;;;;;;;;;;;2.70;99.90;;;;;;5113857;28;20385;-72
2021/01/28 05:12:00;;;;;;;;;;;2.80;99.90;;;;;;5114139;28;20279;-72
2021/01/28 05:14:29;;;;;;;;;;;2.80;99.90;;;;;;5113816;28;19969;-72
2021/01/28 05:16:56;;;;;;;;;;;2.80;99.90;;;;;;5113219;28;19924;-72
2021/01/28 05:19:33;;;;;;;;;;;2.80;99.90;;;;;;5113767;28;19930;-72
2021/01/28 05:22:17;;;;;;;;;;;2.80;99.90;;;;;;5113818;28;19969;-72
2021/01/28 05:24:44;;;;;;;;;;;2.90;99.90;;;;;;5113868;28;19979;-72
2021/01/28 05:27:26;;;;;;;;;;;2.90;99.90;;;;;;5113422;28;19930;-73
2021/01/28 05:29:54;;;;;;;;;;;2.90;99.90;;;;;;5113765;28;19923;-71
2021/01/28 05:32:35;;;;;;;;;;;2.90;99.90;;;;;;5113476;28;19931;-71
2021/01/28 05:35:24;;;;;;;;;;;2.90;99.90;;;;;;5113578;28;19931;-72
2021/01/28 05:38:02;;;;;;;;;;;3.00;99.90;;;;;;5113558;28;19947;-72
2021/01/28 05:40:28;;;;;;;;;;;3.00;99.90;;;;;;5113490;28;20328;-71
2021/01/28 05:42:54;;;;;;;;;;;3.00;99.90;;;;;;5113024;28;19924;-72
2021/01/28 05:45:26;;;;;;;;;;;3.00;99.90;;;;;;5112960;28;19924;-72
2021/01/28 05:47:53;;;;;;;;;;;3.00;99.90;;;;;;5113021;28;19923;-72
2021/01/28 05:50:21;;;;;;;;;;;3.10;99.90;;;;;;5112976;28;19924;-71
2021/01/28 05:52:48;;;;;;;;;;;3.00;99.90;;;;;;5113140;28;19928;-71
2021/01/28 05:55:16;;;;;;;;;;;3.00;99.90;;;;;;5112423;28;19972;-71
2021/01/28 05:57:52;;;;;;;;;;;3.00;99.90;;;;;;5112787;28;19931;-72
2021/01/28 06:00:25;;;;;;;;;;;3.10;99.90;;;;;;5113332;28;20400;-73
2021/01/28 06:03:03;;;;;;;;;;;3.10;99.90;;;;;;5113114;28;20305;-73
2021/01/28 06:05:33;;;;;;;;;;;3.10;99.90;;;;;;5112706;28;19963;-74
2021/01/28 06:08:23;;;;;;;;;;;3.20;99.90;;;;;;5112580;28;19931;-74
2021/01/28 06:10:59;;;;;;;;;;;3.10;99.90;;;;;;5112793;28;20468;-73
2021/01/28 06:13:43;;;;;;;;;;;3.20;99.90;;;;;;5113268;28;19924;-75
2021/01/28 06:16:12;;;;;;;;;;;3.20;99.90;;;;;;5111708;28;20381;-74
2021/01/28 06:18:49;;;;;;;;;;;3.20;99.90;;;;;;5111763;28;19928;-69
2021/01/28 06:21:23;;;;;;;;;;;3.30;99.90;;;;;;5112646;28;19924;-70
2021/01/28 06:24:13;;;;;;;;;;;3.30;99.90;;;;;;5112548;28;20369;-70
2021/01/28 06:26:43;;;;;;;;;;;3.30;99.90;;;;;;5101266;28;20381;-70
2021/01/28 06:29:27;;;;;;;;;;;3.30;99.90;;;;;;5112777;28;19931;-71
2021/01/28 06:32:05;;;;;;;;;;;3.40;99.90;;;;;;5116933;28;19923;-73
2021/01/28 06:34:45;;;;;;;;;;;3.40;99.90;;;;;;5133080;28;20308;-72
2021/01/28 06:37:16;;;;;;;;;;;3.40;99.90;;;;;;5132474;27;20297;-72
2021/01/28 06:39:45;;;;;;;;;;;3.40;99.90;;;;;;5132892;27;20339;-73
2021/01/28 06:42:17;;;;;;;;;;;3.40;99.90;;;;;;5133035;28;20434;-74
2021/01/28 06:44:45;;;;;;;;;;;3.40;99.90;;;;;;5132708;27;19924;-73
2021/01/28 06:47:15;;;;;;;;;;;3.40;99.90;;;;;;5132431;28;19923;-72
2021/01/28 06:49:50;;;;;;;;;;;3.40;99.90;;;;;;5132866;27;19923;-74
2021/01/28 06:52:33;;;;;;;;;;;3.40;99.90;;;;;;5132906;28;20421;-73
2021/01/28 06:55:02;;;;;;;;;;;3.40;99.90;;;;;;5132705;27;20387;-76
2021/01/28 06:57:30;;;;;;;;;;;3.40;99.90;;;;;;5132603;27;19968;-75
2021/01/28 07:00:00;;;;;;;;;;;3.40;99.90;;;;;;5115948;28;20374;-74
2021/01/28 07:02:30;;;;;;;;;;;3.40;99.90;;;;;;5112562;28;19968;-74
2021/01/28 07:05:06;;;;;;;;;;;3.40;99.90;;;;;;5112751;28;19931;-72
2021/01/28 07:07:37;;;;;;;;;;;3.40;99.90;;;;;;5112364;28;19930;-72
2021/01/28 07:10:06;;;;;;;;;;;3.40;99.90;;;;;;5112694;28;20011;-72
2021/01/28 07:12:36;;;;;;;;;;;3.40;99.90;;;;;;5112104;28;20301;-70
2021/01/28 07:15:04;;;;;;;;;;;3.40;99.90;;;;;;5112303;28;19943;-71
2021/01/28 07:17:32;;;;;;;;;;;3.40;99.90;;;;;;5112102;28;19924;-75
2021/01/28 07:20:00;;;;;;;;;;;3.40;99.90;;;;;;5112245;28;19928;-72
2021/01/28 07:22:28;;;;;;;;;;;3.40;99.90;;;;;;5112197;28;19924;-74
2021/01/28 07:24:55;;;;;;;;;;;3.40;99.90;;;;;;5112444;28;19924;-74
2021/01/28 07:27:22;;;;;;;;;;;3.40;99.90;;;;;;5122775;28;19923;-73
2021/01/28 07:29:54;;;;;;;;;;;3.40;99.90;;;;;;5116482;28;20309;-72
2021/01/28 07:32:38;;;;;;;;;;;3.40;99.90;;;;;;5123002;27;19927;-71
2021/01/28 07:35:39;;;;;;;;;;;3.40;99.90;;;;;;5115752;28;20458;-71
2021/01/28 07:38:23;;;;;;;;;;;3.50;99.90;;;;;;5052679;28;19932;-72
2021/01/28 07:40:57;;;;;;;;;;;3.40;99.90;;;;;;5052781;28;19932;-71
2021/01/28 07:43:24;;;;;;;;;;;3.40;99.90;;;;;;5052713;28;19925;-70
2021/01/28 07:46:09;;;;;;;;;;;3.40;99.90;;;;;;5052337;28;19932;-70
2021/01/28 07:48:35;;;;;;;;;;;3.40;99.90;;;;;;5052669;28;19955;-72
2021/01/28 07:51:19;;;;;;;;;;;3.40;99.90;;;;;;5052576;28;19925;-70
2021/01/28 07:53:47;;;;;;;;;;;3.30;99.90;;;;;;5060592;28;19960;-70
2021/01/28 07:56:32;;;;;;;;;;;3.30;99.90;;;;;;5069986;28;19925;-72
2021/01/28 07:58:59;;;;;;;;;;;3.30;99.90;;;;;;5052422;28;19967;-74
2021/01/28 08:01:25;;;;;;;;;;;3.30;99.90;;;;;;5052628;28;20391;-74
2021/01/28 08:03:59;;;;;;;;;;;3.40;99.90;;;;;;5071332;28;19924;-75
2021/01/28 08:06:26;;;;;;;;;;;3.40;99.90;;;;;;5068547;28;20483;-74
2021/01/28 08:09:02;;;;;;;;;;;3.40;99.90;;;;;;5102158;27;19923;-74
2021/01/28 08:11:28;;;;;;;;;;;3.40;99.90;;;;;;5136041;27;19934;-74
2021/01/28 08:13:55;;;;;;;;;;;3.40;99.90;;;;;;5135889;27;19924;-74
2021/01/28 08:16:23;;;;;;;;;;;3.40;99.90;;;;;;5134981;27;19984;-71
2021/01/28 08:18:59;;;;;;;;;;;3.30;99.90;;;;;;5135602;27;19967;-70
2021/01/28 08:21:26;;;;;;;;;;;3.30;99.90;;;;;;5131070;27;19931;-70
2021/01/28 08:23:52;;;;;;;;;;;3.30;99.90;;;;;;5115116;28;20026;-70
2021/01/28 08:26:23;;;;;;;;;;;3.30;99.90;;;;;;5114410;28;19935;-70
2021/01/28 08:29:02;;;;;;;;;;;3.30;99.90;;;;;;5114986;28;19969;-70
2021/01/28 08:31:34;;;;;;;;;;;3.40;99.90;;;;;;5115034;28;19935;-69
2021/01/28 08:34:01;;;;;;;;;;;3.40;99.90;;;;;;5118805;27;19954;-69
2021/01/28 08:36:30;;;;;;;;;;;3.40;99.90;;;;;;5134996;27;19930;-69
2021/01/28 08:39:05;;;;;;;;;;;3.40;99.90;;;;;;5135098;27;20301;-69
2021/01/28 08:41:31;;;;;;;;;;;3.40;99.90;;;;;;5134557;27;20385;-71
2021/01/28 08:43:58;;;;;;;;;;;3.40;99.90;;;;;;5134434;27;19924;-71
2021/01/28 08:46:24;;;;;;;;;;;3.50;99.90;;;;;;5135065;27;19930;-71
2021/01/28 08:49:01;;;;;;;;;;;3.50;99.90;;;;;;5135129;27;19924;-71
2021/01/28 08:51:28;;;;;;;;;;;3.60;99.90;;;;;;5135293;27;20345;-71
2021/01/28 08:53:59;;;;;;;;;;;3.70;99.90;;;;;;5134831;27;19923;-71
2021/01/28 08:56:27;;;;;;;;;;;3.70;99.90;;;;;;5134384;27;19924;-75
2021/01/28 08:58:54;;;;;;;;;;;3.70;99.90;;;;;;5134691;27;19968;-73
2021/01/28 09:01:20;;;;;;;;;;;3.80;99.90;;;;;;5123663;27;19923;-70
2021/01/28 09:03:57;;;;;;;;;;;3.80;99.90;;;;;;5114368;28;19928;-70
2021/01/28 09:06:23;;;;;;;;;;;3.90;99.90;;;;;;5117810;27;20400;-70
2021/01/28 09:09:00;;;;;;;;;;;4.00;99.90;;;;;;5134756;27;19931;-70
2021/01/28 09:11:27;;;;;;;;;;;4.00;99.90;;;;;;5134119;27;20381;-72
2021/01/28 09:14:21;;;;;;;;;;;4.20;99.90;;;;;;5134657;27;19923;-75
2021/01/28 09:16:50;;;;;;;;;;;4.20;99.90;;;;;;5086160;27;19923;-71
2021/01/28 09:19:18;;;;;;;;;;;4.30;99.90;;;;;;5134369;27;19927;-73
2021/01/28 09:21:45;;;;;;;;;;;4.50;99.90;;;;;;5134290;27;19930;-70
2021/01/28 09:24:20;;;;;;;;;;;4.60;99.90;;;;;;5134507;27;19923;-72
2021/01/28 09:26:46;;;;;;;;;;;4.70;99.90;;;;;;5124682;27;20286;-70
2021/01/28 09:29:15;;;;;;;;;;;4.70;99.90;;;;;;5113821;28;19931;-69
2021/01/28 09:31:42;;;;;;;;;;;4.80;99.90;;;;;;5113694;28;19924;-70
2021/01/28 09:34:12;;;;;;;;;;;4.90;99.90;;;;;;5113463;28;19934;-69
2021/01/28 09:36:39;;;;;;;;;;;4.90;99.90;;;;;;5112970;28;20394;-72
2021/01/28 09:39:12;;;;;;;;;;;4.90;99.90;;;;;;5113434;28;20329;-72
2021/01/28 09:41:42;;;;;;;;;;;4.90;99.90;;;;;;5113522;28;19928;-69
2021/01/28 09:44:27;;;;;;;;;;;5.00;99.90;;;;;;5114753;27;20427;-71
2021/01/28 09:47:10;;;;;;;;;;;5.10;99.90;;;;;;5113232;28;19924;-71
2021/01/28 09:49:36;;;;;;;;;;;5.20;99.90;;;;;;5113518;28;19924;-69
2021/01/28 09:52:03;;;;;;;;;;;5.20;99.90;;;;;;5113414;28;19930;-71
2021/01/28 09:54:33;;;;;;;;;;;5.20;99.90;;;;;;5118026;27;19924;-70
2021/01/28 09:57:00;;;;;;;;;;;5.10;99.90;;;;;;5133189;27;19929;-69
2021/01/28 09:59:26;;;;;;;;;;;5.10;99.90;;;;;;5133524;27;20319;-71
2021/01/28 10:01:52;;;;;;;;;;;5.20;99.90;;;;;;5133836;27;19923;-72
2021/01/28 10:04:18;;;;;;;;;;;5.20;99.90;;;;;;5133804;27;19927;-70
2021/01/28 10:06:44;;;;;;;;;;;5.30;99.90;;;;;;5133516;27;19923;-71
2021/01/28 10:09:11;;;;;;;;;;;5.20;99.90;;;;;;5133575;27;19991;-72
2021/01/28 10:11:37;;;;;;;;;;;5.10;99.90;;;;;;5133371;27;20407;-70
2021/01/28 10:14:03;;;;;;;;;;;4.90;99.90;;;;;;5133314;27;19928;-70
2021/01/28 10:16:31;;;;;;;;;;;4.80;99.90;;;;;;5132977;27;19924;-70
2021/01/28 10:18:57;;;;;;;;;;;4.70;99.90;;;;;;5133444;27;19975;-70
2021/01/28 10:21:23;;;;;;;;;;;4.70;99.90;;;;;;5133424;27;19931;-72
2021/01/28 10:23:49;;;;;;;;;;;4.70;99.90;;;;;;5117068;27;19992;-70
2021/01/28 10:26:16;;;;;;;;;;;4.70;99.90;;;;;;5112266;28;19923;-71
2021/01/28 10:28:42;;;;;;;;;;;4.80;99.90;;;;;;5112930;28;19973;-72
2021/01/28 10:31:09;;;;;;;;;;;4.90;99.90;;;;;;5126999;27;19927;-73
2021/01/28 10:33:38;;;;;;;;;;;4.90;99.90;;;;;;5132920;28;20416;-72
2021/01/28 10:36:05;;;;;;;;;;;5.00;99.90;;;;;;5132841;27;19976;-70
2021/01/28 10:38:31;;;;;;;;;;;5.10;99.90;;;;;;5114040;28;20412;-69
2021/01/28 10:40:57;;;;;;;;;;;5.20;99.90;;;;;;5112635;28;19924;-72
2021/01/28 10:43:24;;;;;;;;;;;5.20;99.90;;;;;;5112892;28;19924;-72
2021/01/28 10:45:50;;;;;;;;;;;5.20;99.90;;;;;;5112580;28;19924;-70
2021/01/28 10:48:17;;;;;;;;;;;5.20;99.90;;;;;;5112492;28;19997;-71
2021/01/28 10:50:43;;;;;;;;;;;5.00;99.90;;;;;;5112357;28;19974;-69
2021/01/28 10:53:09;;;;;;;;;;;5.00;99.90;;;;;;5112367;28;19924;-71
2021/01/28 10:55:36;;;;;;;;;;;5.20;99.90;;;;;;5123505;28;20077;-75
2021/01/28 10:58:02;;;;;;;;;;;5.10;99.90;;;;;;5132411;27;20293;-75
2021/01/28 11:00:30;;;;;;;;;;;5.00;99.90;;;;;;5133068;28;19928;-75
2021/01/28 11:02:56;;;;;;;;;;;5.00;99.90;;;;;;5133070;28;19923;-75
2021/01/28 11:05:23;;;;;;;;;;;4.90;99.90;;;;;;5125471;27;19924;-75
2021/01/28 11:07:50;;;;;;;;;;;4.80;99.90;;;;;;5116333;28;19931;-75
2021/01/28 11:10:16;;;;;;;;;;;4.80;99.90;;;;;;5116478;28;20474;-75
2021/01/28 11:12:42;;;;;;;;;;;4.80;99.90;;;;;;5116507;28;19924;-74
2021/01/28 11:15:09;;;;;;;;;;;4.80;99.90;;;;;;5116438;28;19928;-75
2021/01/28 11:17:36;;;;;;;;;;;4.80;99.90;;;;;;5115757;28;19969;-74
2021/01/28 11:20:03;;;;;;;;;;;4.90;99.90;;;;;;5116283;28;19924;-74
2021/01/28 11:22:29;;;;;;;;;;;4.90;99.90;;;;;;5116086;27;19943;-75
2021/01/28 11:24:55;;;;;;;;;;;5.00;99.90;;;;;;5116297;28;19924;-75
2021/01/28 11:27:21;;;;;;;;;;;5.00;99.90;;;;;;5115779;28;19947;-75
2021/01/28 11:29:47;;;;;;;;;;;5.10;99.90;;;;;;5116154;28;19969;-75
2021/01/28 11:32:13;;;;;;;;;;;5.30;99.90;;;;;;5115934;28;19924;-76
2021/01/28 11:34:41;;;;;;;;;;;5.50;99.90;;;;;;5133871;27;20437;-75
2021/01/28 11:37:07;;;;;;;;;;;5.50;99.90;;;;;;5135846;27;19923;-76
2021/01/28 11:39:34;;;;;;;;;;;5.40;99.90;;;;;;5136212;27;19930;-75
2021/01/28 11:42:00;;;;;;;;;;;5.40;99.90;;;;;;5136508;27;19976;-75
2021/01/28 11:44:26;;;;;;;;;;;5.50;99.90;;;;;;5136393;27;19924;-75
2021/01/28 11:46:53;;;;;;;;;;;5.60;99.90;;;;;;5135810;27;19935;-76
2021/01/28 11:49:20;;;;;;;;;;;5.80;99.90;;;;;;5136156;27;20381;-75
2021/01/28 11:51:46;;;;;;;;;;;5.70;99.90;;;;;;5135981;27;19924;-76
2021/01/28 11:54:13;;;;;;;;;;;5.50;99.90;;;;;;5118904;27;19928;-75
2021/01/28 11:56:38;;;;;;;;;;;5.40;99.90;;;;;;5115448;28;20010;-75
2021/01/28 11:59:04;;;;;;;;;;;5.20;99.90;;;;;;5128788;27;19923;-75
2021/01/28 12:01:31;;;;;;;;;;;5.30;99.90;;;;;;5135936;27;19923;-75
2021/01/28 12:03:57;;;;;;;;;;;5.30;99.90;;;;;;5135946;27;19923;-75
2021/01/28 12:06:23;;;;;;;;;;;5.30;99.90;;;;;;5135586;27;19931;-76
2021/01/28 12:08:50;;;;;;;;;;;5.40;99.90;;;;;;5135957;27;19923;-75
2021/01/28 12:11:16;;;;;;;;;;;5.30;99.90;;;;;;5135854;27;19980;-74
2021/01/28 12:13:42;;;;;;;;;;;5.10;99.90;;;;;;5135383;27;20300;-75
2021/01/28 12:16:09;;;;;;;;;;;4.90;99.90;;;;;;5134163;27;19927;-73
2021/01/28 12:18:35;;;;;;;;;;;5.00;99.90;;;;;;5115401;28;19924;-72
2021/01/28 12:21:01;;;;;;;;;;;5.00;99.90;;;;;;5114957;28;19928;-72
2021/01/28 12:23:27;;;;;;;;;;;5.10;99.90;;;;;;5115077;28;20323;-72
2021/01/28 12:25:54;;;;;;;;;;;5.20;99.90;;;;;;5116488;27;19988;-70
2021/01/28 12:28:20;;;;;;;;;;;5.20;99.90;;;;;;5128016;27;19924;-70
2021/01/28 12:30:46;;;;;;;;;;;5.40;99.90;;;;;;5114656;28;20557;-70
2021/01/28 12:33:12;;;;;;;;;;;5.50;99.90;;;;;;5114551;28;19930;-70
2021/01/28 12:35:38;;;;;;;;;;;5.70;99.90;;;;;;5114377;28;19928;-69
2021/01/28 12:38:04;;;;;;;;;;;5.90;99.90;;;;;;5114511;28;19931;-68
2021/01/28 12:40:30;;;;;;;;;;;5.10;99.90;;;;;;5114821;27;19931;-71
2021/01/28 12:42:57;;;;;;;;;;;6.40;99.90;;;;;;5121810;27;19923;-69
2021/01/28 12:45:23;;;;;;;;;;;6.70;99.90;;;;;;5134882;27;19996;-72
2021/01/28 12:47:49;;;;;;;;;;;6.90;99.90;;;;;;5134591;27;19924;-69
2021/01/28 12:50:18;;;;;;;;;;;6.80;99.90;;;;;;5135189;27;19924;-70
2021/01/28 12:52:45;;;;;;;;;;;6.70;99.90;;;;;;5135086;27;19923;-72
2021/01/28 12:55:11;;;;;;;;;;;6.70;99.90;;;;;;5134087;27;19924;-68
2021/01/28 12:57:38;;;;;;;;;;;6.60;99.90;;;;;;5113730;28;20299;-67
2021/01/28 13:00:08;;;;;;;;;;;6.50;99.90;;;;;;5114123;28;20393;-71
2021/01/28 13:02:34;;;;;;;;;;;6.40;99.90;;;;;;5113908;28;19924;-71
2021/01/28 13:05:00;;;;;;;;;;;6.30;99.90;;;;;;5114207;28;19977;-71
2021/01/28 13:07:26;;;;;;;;;;;6.10;99.90;;;;;;5116216;27;20327;-71
2021/01/28 13:09:52;;;;;;;;;;;6.00;99.90;;;;;;5132618;27;19931;-72
2021/01/28 13:12:18;;;;;;;;;;;5.80;99.90;;;;;;5113950;27;19969;-70
2021/01/28 13:14:44;;;;;;;;;;;5.70;99.90;;;;;;5113868;28;19924;-73
2021/01/28 13:17:11;;;;;;;;;;;5.70;99.90;;;;;;5113237;28;19930;-71
2021/01/28 13:19:37;;;;;;;;;;;5.80;99.90;;;;;;5114030;28;19924;-71
2021/01/28 13:22:03;;;;;;;;;;;5.80;99.90;;;;;;5113968;28;19927;-70
2021/01/28 13:24:29;;;;;;;;;;;5.90;99.90;;;;;;5113793;28;19942;-72
2021/01/28 13:26:55;;;;;;;;;;;6.00;99.90;;;;;;5128197;27;19931;-69
2021/01/28 13:29:21;;;;;;;;;;;6.00;99.90;;;;;;5133924;27;19923;-70
2021/01/28 13:31:47;;;;;;;;;;;6.10;99.90;;;;;;5134404;27;19968;-75
2021/01/28 13:34:14;;;;;;;;;;;6.10;99.90;;;;;;5134390;27;19930;-70
2021/01/28 13:36:40;;;;;;;;;;;6.20;99.90;;;;;;5133629;27;19923;-71
2021/01/28 13:39:06;;;;;;;;;;;6.30;99.90;;;;;;5123359;27;19924;-70
2021/01/28 13:41:32;;;;;;;;;;;6.40;99.90;;;;;;5113607;28;19931;-71
2021/01/28 13:43:58;;;;;;;;;;;6.70;99.90;;;;;;5113491;28;19976;-78
2021/01/28 13:46:24;;;;;;;;;;;7.00;99.90;;;;;;5112892;28;19923;-73
2021/01/28 13:48:50;;;;;;;;;;;7.10;99.90;;;;;;5113534;28;20345;-75
2021/01/28 13:51:17;;;;;;;;;;;7.30;99.90;;;;;;5113434;28;19935;-73
2021/01/28 13:53:43;;;;;;;;;;;7.30;99.90;;;;;;5122720;27;19924;-73
2021/01/28 13:56:09;;;;;;;;;;;7.40;99.90;;;;;;5133197;27;19923;-72
2021/01/28 13:58:36;;;;;;;;;;;7.40;99.90;;;;;;5133623;27;19923;-72
2021/01/28 14:01:02;;;;;;;;;;;7.20;99.90;;;;;;5133330;27;20367;-73
2021/01/28 14:03:28;;;;;;;;;;;7.40;99.90;;;;;;5133878;27;19934;-71
2021/01/28 14:05:54;;;;;;;;;;;7.60;99.90;;;;;;5133214;27;19931;-70
2021/01/28 14:08:21;;;;;;;;;;;7.70;99.90;;;;;;5135039;27;19923;-74
2021/01/28 14:10:47;;;;;;;;;;;7.60;99.90;;;;;;5119445;27;20397;-69
2021/01/28 14:13:13;;;;;;;;;;;7.50;99.90;;;;;;5112899;28;19931;-69
2021/01/28 14:15:39;;;;;;;;;;;7.30;99.90;;;;;;5112657;28;19969;-72
2021/01/28 14:18:06;;;;;;;;;;;7.00;99.90;;;;;;5112844;28;19928;-76
2021/01/28 14:20:32;;;;;;;;;;;6.60;99.90;;;;;;5113071;28;19959;-76
2021/01/28 14:22:58;;;;;;;;;;;6.30;99.90;;;;;;5132494;27;19931;-75
2021/01/28 14:25:25;;;;;;;;;;;6.10;99.90;;;;;;5132965;27;19928;-77
2021/01/28 14:27:51;;;;;;;;;;;6.10;99.90;;;;;;5115855;27;19924;-73
2021/01/28 14:30:19;;;;;;;;;;;6.10;99.90;;;;;;5112890;28;19931;-70
2021/01/28 14:32:46;;;;;;;;;;;6.00;99.90;;;;;;5112843;28;19931;-70
2021/01/28 14:35:13;;;;;;;;;;;5.90;99.90;;;;;;5112660;28;20382;-71
2021/01/28 14:37:39;;;;;;;;;;;5.80;99.90;;;;;;5116575;28;20051;-72